CheckWX is a tool to help pilots better visualize weather data.  It is not intended as a substitute for an official pre-flight weather briefing.

04:26:08 UTC

SCTB METAR
Eulogio Sánchez Airport
Santiago, Chile
Current

5 hours ago

SCTB 172300Z 22008KT 180V250 CAVOK 27/09 Q1013
Observed
Feb-17 @ 23:00 UTC
Wind
  • 220° at 8 KTS
Visibility
10,000+ meters
Flight Rules
VFR
Cloud Levels
  • Clear skies
Temperature
27°C / 81°F
Dewpoint
C / 48°F
Humidity
32%
Altimeter
29.91" Hg
Pressure
1012.92 hPa
Previous

6 hours ago

SCTB 172200Z 22006KT 160V270 CAVOK 29/07 Q1013
Observed
Feb-17 @ 22:00 UTC
Wind
  • 220° at 6 KTS
Visibility
10,000+ meters
Flight Rules
VFR
Cloud Levels
  • Clear skies
Temperature
29°C / 84°F
Dewpoint
C / 45°F
Humidity
25%
Altimeter
29.91" Hg
Pressure
1012.92 hPa
Previous

7 hours ago

SCTB 172100Z 21006KT CAVOK 28/06 Q1014
Observed
Feb-17 @ 21:00 UTC
Wind
  • 210° at 6 KTS
Visibility
10,000+ meters
Flight Rules
VFR
Cloud Levels
  • Clear skies
Temperature
28°C / 82°F
Dewpoint
C / 43°F
Humidity
25%
Altimeter
29.94" Hg
Pressure
1013.92 hPa